sensor_id;sensor_type;location;lat;lon;timestamp;P1;durP1;ratioP1;P2;durP2;ratioP2
17253;SDS011;32542;52.832;13.816;2023-02-28T00:02:54;18.67;;;9.20;;
17253;SDS011;32542;52.832;13.816;2023-02-28T00:05:58;21.33;;;9.40;;
17253;SDS011;32542;52.832;13.816;2023-02-28T00:09:01;17.88;;;9.13;;
17253;SDS011;32542;52.832;13.816;2023-02-28T00:12:06;15.52;;;8.80;;
17253;SDS011;32542;52.832;13.816;2023-02-28T00:15:11;15.25;;;8.52;;
17253;SDS011;32542;52.832;13.816;2023-02-28T00:18:14;20.45;;;9.32;;
17253;SDS011;32542;52.832;13.816;2023-02-28T00:21:17;18.08;;;9.10;;
17253;SDS011;32542;52.832;13.816;2023-02-28T00:24:21;16.02;;;8.75;;
17253;SDS011;32542;52.832;13.816;2023-02-28T00:27:25;13.88;;;8.35;;
17253;SDS011;32542;52.832;13.816;2023-02-28T00:30:28;14.82;;;8.40;;
17253;SDS011;32542;52.832;13.816;2023-02-28T00:33:31;14.02;;;8.30;;
17253;SDS011;32542;52.832;13.816;2023-02-28T00:36:34;18.33;;;7.97;;
17253;SDS011;32542;52.832;13.816;2023-02-28T00:39:38;15.38;;;8.48;;
17253;SDS011;32542;52.832;13.816;2023-02-28T00:42:43;13.02;;;7.65;;
17253;SDS011;32542;52.832;13.816;2023-02-28T00:45:46;13.27;;;7.95;;
17253;SDS011;32542;52.832;13.816;2023-02-28T00:48:49;13.98;;;7.45;;
17253;SDS011;32542;52.832;13.816;2023-02-28T00:51:53;15.07;;;7.82;;
17253;SDS011;32542;52.832;13.816;2023-02-28T00:54:56;13.88;;;8.00;;
17253;SDS011;32542;52.832;13.816;2023-02-28T00:58:01;12.52;;;8.57;;
17253;SDS011;32542;52.832;13.816;2023-02-28T01:01:04;11.27;;;7.30;;
17253;SDS011;32542;52.832;13.816;2023-02-28T01:04:07;14.10;;;7.50;;
17253;SDS011;32542;52.832;13.816;2023-02-28T01:07:10;10.93;;;7.22;;
17253;SDS011;32542;52.832;13.816;2023-02-28T01:10:13;12.73;;;6.90;;
17253;SDS011;32542;52.832;13.816;2023-02-28T01:13:18;10.82;;;7.03;;
17253;SDS011;32542;52.832;13.816;2023-02-28T01:16:21;10.77;;;6.82;;
17253;SDS011;32542;52.832;13.816;2023-02-28T01:19:24;11.75;;;7.15;;
17253;SDS011;32542;52.832;13.816;2023-02-28T01:22:27;14.15;;;6.57;;
17253;SDS011;32542;52.832;13.816;2023-02-28T01:25:30;9.23;;;6.40;;
17253;SDS011;32542;52.832;13.816;2023-02-28T01:28:40;10.20;;;6.70;;
17253;SDS011;32542;52.832;13.816;2023-02-28T01:31:43;7.93;;;5.90;;
17253;SDS011;32542;52.832;13.816;2023-02-28T01:34:47;9.32;;;5.85;;
17253;SDS011;32542;52.832;13.816;2023-02-28T01:37:50;9.80;;;5.82;;
17253;SDS011;32542;52.832;13.816;2023-02-28T01:40:53;12.55;;;6.03;;
17253;SDS011;32542;52.832;13.816;2023-02-28T01:43:59;9.23;;;5.70;;
17253;SDS011;32542;52.832;13.816;2023-02-28T01:47:07;12.48;;;6.50;;
17253;SDS011;32542;52.832;13.816;2023-02-28T01:50:12;10.82;;;6.32;;
17253;SDS011;32542;52.832;13.816;2023-02-28T01:53:19;9.23;;;6.10;;
17253;SDS011;32542;52.832;13.816;2023-02-28T01:56:27;10.45;;;5.43;;
17253;SDS011;32542;52.832;13.816;2023-02-28T01:59:36;11.02;;;5.78;;
17253;SDS011;32542;52.832;13.816;2023-02-28T02:02:48;8.40;;;5.65;;
17253;SDS011;32542;52.832;13.816;2023-02-28T02:05:53;8.73;;;5.22;;
17253;SDS011;32542;52.832;13.816;2023-02-28T02:08:56;10.23;;;5.85;;
17253;SDS011;32542;52.832;13.816;2023-02-28T02:11:59;7.70;;;5.18;;
17253;SDS011;32542;52.832;13.816;2023-02-28T02:15:19;9.73;;;5.70;;
17253;SDS011;32542;52.832;13.816;2023-02-28T02:18:30;11.90;;;5.85;;
17253;SDS011;32542;52.832;13.816;2023-02-28T02:21:57;8.52;;;5.35;;
17253;SDS011;32542;52.832;13.816;2023-02-28T02:25:18;7.30;;;5.10;;
17253;SDS011;32542;52.832;13.816;2023-02-28T02:32:10;10.00;;;5.70;;
17253;SDS011;32542;52.832;13.816;2023-02-28T02:35:29;8.77;;;5.10;;
17253;SDS011;32542;52.832;13.816;2023-02-28T02:38:38;8.05;;;5.10;;
17253;SDS011;32542;52.832;13.816;2023-02-28T02:41:50;6.85;;;4.82;;
17253;SDS011;32542;52.832;13.816;2023-02-28T02:44:56;7.68;;;5.15;;
17253;SDS011;32542;52.832;13.816;2023-02-28T02:48:06;7.53;;;4.63;;
17253;SDS011;32542;52.832;13.816;2023-02-28T02:51:13;7.18;;;4.70;;
17253;SDS011;32542;52.832;13.816;2023-02-28T02:54:19;7.35;;;5.45;;
17253;SDS011;32542;52.832;13.816;2023-02-28T02:57:30;10.13;;;4.70;;
17253;SDS011;32542;52.832;13.816;2023-02-28T03:00:39;6.00;;;4.85;;
17253;SDS011;32542;52.832;13.816;2023-02-28T03:03:45;7.95;;;4.72;;
17253;SDS011;32542;52.832;13.816;2023-02-28T03:06:49;8.35;;;5.18;;
17253;SDS011;32542;52.832;13.816;2023-02-28T03:09:56;6.75;;;4.70;;
17253;SDS011;32542;52.832;13.816;2023-02-28T03:13:03;7.22;;;4.82;;
17253;SDS011;32542;52.832;13.816;2023-02-28T03:16:28;6.88;;;4.45;;
17253;SDS011;32542;52.832;13.816;2023-02-28T03:19:46;8.25;;;4.57;;
17253;SDS011;32542;52.832;13.816;2023-02-28T03:22:56;6.85;;;4.55;;
17253;SDS011;32542;52.832;13.816;2023-02-28T03:26:07;6.72;;;4.57;;
17253;SDS011;32542;52.832;13.816;2023-02-28T03:29:17;6.20;;;4.43;;
17253;SDS011;32542;52.832;13.816;2023-02-28T03:32:32;6.10;;;4.50;;
17253;SDS011;32542;52.832;13.816;2023-02-28T03:35:40;8.15;;;4.53;;
17253;SDS011;32542;52.832;13.816;2023-02-28T03:38:48;6.28;;;4.40;;
17253;SDS011;32542;52.832;13.816;2023-02-28T03:41:57;5.70;;;4.13;;
17253;SDS011;32542;52.832;13.816;2023-02-28T03:45:04;7.93;;;4.60;;
17253;SDS011;32542;52.832;13.816;2023-02-28T03:48:12;5.93;;;4.30;;
17253;SDS011;32542;52.832;13.816;2023-02-28T03:51:20;6.88;;;4.35;;
17253;SDS011;32542;52.832;13.816;2023-02-28T03:54:29;5.53;;;3.85;;
17253;SDS011;32542;52.832;13.816;2023-02-28T03:57:37;7.07;;;4.35;;
17253;SDS011;32542;52.832;13.816;2023-02-28T04:00:46;5.60;;;3.95;;
17253;SDS011;32542;52.832;13.816;2023-02-28T04:03:53;5.75;;;4.43;;
17253;SDS011;32542;52.832;13.816;2023-02-28T04:07:00;5.13;;;3.75;;
17253;SDS011;32542;52.832;13.816;2023-02-28T04:10:06;5.43;;;3.88;;
17253;SDS011;32542;52.832;13.816;2023-02-28T04:13:10;6.53;;;4.07;;
17253;SDS011;32542;52.832;13.816;2023-02-28T04:16:13;7.50;;;4.20;;
17253;SDS011;32542;52.832;13.816;2023-02-28T04:19:34;5.10;;;3.65;;
17253;SDS011;32542;52.832;13.816;2023-02-28T04:22:37;7.22;;;3.78;;
17253;SDS011;32542;52.832;13.816;2023-02-28T04:25:42;5.28;;;3.65;;
17253;SDS011;32542;52.832;13.816;2023-02-28T04:28:45;5.65;;;4.10;;
17253;SDS011;32542;52.832;13.816;2023-02-28T04:31:48;4.95;;;3.60;;
17253;SDS011;32542;52.832;13.816;2023-02-28T04:34:51;6.00;;;3.88;;
17253;SDS011;32542;52.832;13.816;2023-02-28T04:37:54;5.43;;;3.65;;
17253;SDS011;32542;52.832;13.816;2023-02-28T04:40:59;6.38;;;3.88;;
17253;SDS011;32542;52.832;13.816;2023-02-28T04:44:02;5.93;;;4.38;;
17253;SDS011;32542;52.832;13.816;2023-02-28T04:47:05;6.15;;;3.72;;
17253;SDS011;32542;52.832;13.816;2023-02-28T04:50:08;7.40;;;4.00;;
17253;SDS011;32542;52.832;13.816;2023-02-28T04:53:12;6.20;;;3.70;;
17253;SDS011;32542;52.832;13.816;2023-02-28T04:56:16;8.95;;;4.43;;
17253;SDS011;32542;52.832;13.816;2023-02-28T04:59:20;5.53;;;3.65;;
17253;SDS011;32542;52.832;13.816;2023-02-28T05:02:23;4.95;;;3.13;;
17253;SDS011;32542;52.832;13.816;2023-02-28T05:05:26;9.15;;;4.40;;
17253;SDS011;32542;52.832;13.816;2023-02-28T05:08:29;7.65;;;3.90;;
17253;SDS011;32542;52.832;13.816;2023-02-28T05:11:34;6.95;;;3.88;;
17253;SDS011;32542;52.832;13.816;2023-02-28T05:14:38;5.68;;;3.80;;
17253;SDS011;32542;52.832;13.816;2023-02-28T05:17:41;4.80;;;3.92;;
17253;SDS011;32542;52.832;13.816;2023-02-28T05:20:44;6.15;;;3.92;;
17253;SDS011;32542;52.832;13.816;2023-02-28T05:23:47;6.35;;;4.13;;
17253;SDS011;32542;52.832;13.816;2023-02-28T05:26:52;6.88;;;4.03;;
17253;SDS011;32542;52.832;13.816;2023-02-28T05:29:56;5.18;;;3.80;;
17253;SDS011;32542;52.832;13.816;2023-02-28T05:33:00;5.72;;;3.40;;
17253;SDS011;32542;52.832;13.816;2023-02-28T05:36:03;5.63;;;3.65;;
17253;SDS011;32542;52.832;13.816;2023-02-28T05:39:07;5.75;;;3.70;;
17253;SDS011;32542;52.832;13.816;2023-02-28T05:42:15;5.60;;;3.65;;
17253;SDS011;32542;52.832;13.816;2023-02-28T05:45:18;5.93;;;3.83;;
17253;SDS011;32542;52.832;13.816;2023-02-28T05:48:21;6.20;;;3.70;;
17253;SDS011;32542;52.832;13.816;2023-02-28T05:51:24;4.93;;;3.50;;
17253;SDS011;32542;52.832;13.816;2023-02-28T05:54:27;7.38;;;3.75;;
17253;SDS011;32542;52.832;13.816;2023-02-28T05:57:31;6.03;;;3.70;;
17253;SDS011;32542;52.832;13.816;2023-02-28T06:00:34;5.57;;;3.60;;
17253;SDS011;32542;52.832;13.816;2023-02-28T06:03:37;4.82;;;3.45;;
17253;SDS011;32542;52.832;13.816;2023-02-28T06:06:40;5.35;;;3.78;;
17253;SDS011;32542;52.832;13.816;2023-02-28T06:09:43;5.97;;;3.42;;
17253;SDS011;32542;52.832;13.816;2023-02-28T06:12:48;4.60;;;3.15;;
17253;SDS011;32542;52.832;13.816;2023-02-28T06:15:51;5.07;;;3.55;;
17253;SDS011;32542;52.832;13.816;2023-02-28T06:18:54;5.70;;;3.65;;
17253;SDS011;32542;52.832;13.816;2023-02-28T06:21:58;6.00;;;3.92;;
17253;SDS011;32542;52.832;13.816;2023-02-28T06:25:01;6.70;;;3.70;;
17253;SDS011;32542;52.832;13.816;2023-02-28T06:28:05;5.63;;;3.60;;
17253;SDS011;32542;52.832;13.816;2023-02-28T06:31:09;5.38;;;3.58;;
17253;SDS011;32542;52.832;13.816;2023-02-28T06:34:13;5.10;;;3.38;;
17253;SDS011;32542;52.832;13.816;2023-02-28T06:37:17;4.93;;;3.38;;
17253;SDS011;32542;52.832;13.816;2023-02-28T06:40:20;5.32;;;3.47;;
17253;SDS011;32542;52.832;13.816;2023-02-28T06:43:25;5.90;;;3.45;;
17253;SDS011;32542;52.832;13.816;2023-02-28T06:46:31;5.35;;;3.83;;
17253;SDS011;32542;52.832;13.816;2023-02-28T06:49:35;6.88;;;3.92;;
17253;SDS011;32542;52.832;13.816;2023-02-28T06:52:38;5.20;;;3.45;;
17253;SDS011;32542;52.832;13.816;2023-02-28T06:55:41;5.65;;;3.47;;
17253;SDS011;32542;52.832;13.816;2023-02-28T06:58:47;4.35;;;2.97;;
17253;SDS011;32542;52.832;13.816;2023-02-28T07:01:50;9.43;;;3.47;;
17253;SDS011;32542;52.832;13.816;2023-02-28T07:04:54;6.35;;;3.67;;
17253;SDS011;32542;52.832;13.816;2023-02-28T07:07:57;5.57;;;3.28;;
17253;SDS011;32542;52.832;13.816;2023-02-28T07:11:00;5.28;;;3.45;;
17253;SDS011;32542;52.832;13.816;2023-02-28T07:14:04;5.15;;;3.42;;
17253;SDS011;32542;52.832;13.816;2023-02-28T07:17:07;4.78;;;3.40;;
17253;SDS011;32542;52.832;13.816;2023-02-28T07:20:12;5.70;;;3.80;;
17253;SDS011;32542;52.832;13.816;2023-02-28T07:23:15;4.25;;;3.35;;
17253;SDS011;32542;52.832;13.816;2023-02-28T07:26:19;4.90;;;3.00;;
17253;SDS011;32542;52.832;13.816;2023-02-28T07:29:24;3.92;;;3.10;;
17253;SDS011;32542;52.832;13.816;2023-02-28T07:32:28;6.00;;;3.78;;
17253;SDS011;32542;52.832;13.816;2023-02-28T07:35:31;5.05;;;3.42;;
17253;SDS011;32542;52.832;13.816;2023-02-28T07:38:35;5.22;;;3.20;;
17253;SDS011;32542;52.832;13.816;2023-02-28T07:41:38;5.10;;;3.40;;
17253;SDS011;32542;52.832;13.816;2023-02-28T07:44:46;7.55;;;3.47;;
17253;SDS011;32542;52.832;13.816;2023-02-28T07:47:49;5.57;;;3.15;;
17253;SDS011;32542;52.832;13.816;2023-02-28T07:50:54;4.97;;;3.08;;
17253;SDS011;32542;52.832;13.816;2023-02-28T07:53:57;6.82;;;3.28;;
17253;SDS011;32542;52.832;13.816;2023-02-28T07:57:01;5.43;;;3.30;;
17253;SDS011;32542;52.832;13.816;2023-02-28T08:00:07;5.10;;;3.42;;
17253;SDS011;32542;52.832;13.816;2023-02-28T08:03:14;6.35;;;3.83;;
17253;SDS011;32542;52.832;13.816;2023-02-28T08:06:19;6.38;;;3.40;;
17253;SDS011;32542;52.832;13.816;2023-02-28T08:09:24;5.05;;;3.00;;
17253;SDS011;32542;52.832;13.816;2023-02-28T08:12:27;6.18;;;3.40;;
17253;SDS011;32542;52.832;13.816;2023-02-28T08:15:32;7.10;;;3.13;;
17253;SDS011;32542;52.832;13.816;2023-02-28T08:18:35;5.15;;;3.45;;
17253;SDS011;32542;52.832;13.816;2023-02-28T08:21:38;5.80;;;3.85;;
17253;SDS011;32542;52.832;13.816;2023-02-28T08:24:42;5.07;;;3.33;;
17253;SDS011;32542;52.832;13.816;2023-02-28T08:27:45;4.43;;;3.20;;
17253;SDS011;32542;52.832;13.816;2023-02-28T08:30:49;6.53;;;3.42;;
17253;SDS011;32542;52.832;13.816;2023-02-28T08:33:54;5.78;;;3.42;;
17253;SDS011;32542;52.832;13.816;2023-02-28T08:37:00;5.15;;;3.63;;
17253;SDS011;32542;52.832;13.816;2023-02-28T08:40:03;4.53;;;3.33;;
17253;SDS011;32542;52.832;13.816;2023-02-28T08:43:07;5.70;;;3.50;;
17253;SDS011;32542;52.832;13.816;2023-02-28T08:46:12;6.70;;;3.90;;
17253;SDS011;32542;52.832;13.816;2023-02-28T08:49:16;7.65;;;3.58;;
17253;SDS011;32542;52.832;13.816;2023-02-28T08:52:20;5.88;;;3.30;;
17253;SDS011;32542;52.832;13.816;2023-02-28T08:55:23;11.93;;;3.75;;
17253;SDS011;32542;52.832;13.816;2023-02-28T08:58:26;5.25;;;3.55;;
17253;SDS011;32542;52.832;13.816;2023-02-28T09:01:30;9.05;;;3.35;;
17253;SDS011;32542;52.832;13.816;2023-02-28T09:04:34;5.35;;;3.17;;
17253;SDS011;32542;52.832;13.816;2023-02-28T09:07:37;9.13;;;4.32;;
17253;SDS011;32542;52.832;13.816;2023-02-28T09:10:40;9.52;;;3.75;;
17253;SDS011;32542;52.832;13.816;2023-02-28T09:13:43;13.80;;;4.32;;
17253;SDS011;32542;52.832;13.816;2023-02-28T09:16:48;21.35;;;4.32;;
17253;SDS011;32542;52.832;13.816;2023-02-28T09:19:51;13.50;;;4.05;;
17253;SDS011;32542;52.832;13.816;2023-02-28T09:22:54;14.75;;;4.45;;
17253;SDS011;32542;52.832;13.816;2023-02-28T09:25:58;23.65;;;4.88;;
17253;SDS011;32542;52.832;13.816;2023-02-28T09:29:01;9.77;;;4.28;;
17253;SDS011;32542;52.832;13.816;2023-02-28T09:32:06;10.18;;;4.55;;
17253;SDS011;32542;52.832;13.816;2023-02-28T09:35:09;13.85;;;4.97;;
17253;SDS011;32542;52.832;13.816;2023-02-28T09:38:15;17.45;;;4.75;;
17253;SDS011;32542;52.832;13.816;2023-02-28T09:41:20;18.42;;;4.57;;
17253;SDS011;32542;52.832;13.816;2023-02-28T09:44:26;12.90;;;4.28;;
17253;SDS011;32542;52.832;13.816;2023-02-28T09:47:36;15.57;;;4.20;;
17253;SDS011;32542;52.832;13.816;2023-02-28T09:50:43;8.02;;;4.47;;
17253;SDS011;32542;52.832;13.816;2023-02-28T09:53:50;12.55;;;4.15;;
17253;SDS011;32542;52.832;13.816;2023-02-28T09:57:04;17.52;;;4.30;;
17253;SDS011;32542;52.832;13.816;2023-02-28T10:00:13;12.05;;;3.72;;
17253;SDS011;32542;52.832;13.816;2023-02-28T10:03:29;8.95;;;3.75;;
17253;SDS011;32542;52.832;13.816;2023-02-28T10:06:39;15.57;;;4.20;;
17253;SDS011;32542;52.832;13.816;2023-02-28T10:09:49;9.73;;;4.32;;
17253;SDS011;32542;52.832;13.816;2023-02-28T10:12:57;16.85;;;3.97;;
17253;SDS011;32542;52.832;13.816;2023-02-28T10:16:05;8.98;;;3.65;;
17253;SDS011;32542;52.832;13.816;2023-02-28T10:19:13;17.23;;;4.28;;
17253;SDS011;32542;52.832;13.816;2023-02-28T10:22:22;18.10;;;3.58;;
17253;SDS011;32542;52.832;13.816;2023-02-28T10:25:31;11.32;;;3.50;;
17253;SDS011;32542;52.832;13.816;2023-02-28T10:28:34;13.32;;;4.30;;
17253;SDS011;32542;52.832;13.816;2023-02-28T10:31:38;13.65;;;4.10;;
17253;SDS011;32542;52.832;13.816;2023-02-28T10:34:43;10.93;;;3.83;;
17253;SDS011;32542;52.832;13.816;2023-02-28T10:37:47;13.27;;;3.70;;
17253;SDS011;32542;52.832;13.816;2023-02-28T10:40:51;10.07;;;4.38;;
17253;SDS011;32542;52.832;13.816;2023-02-28T10:44:13;10.98;;;3.90;;
17253;SDS011;32542;52.832;13.816;2023-02-28T10:47:20;7.20;;;3.40;;
17253;SDS011;32542;52.832;13.816;2023-02-28T10:50:28;6.93;;;3.40;;
17253;SDS011;32542;52.832;13.816;2023-02-28T10:53:38;10.27;;;3.83;;
17253;SDS011;32542;52.832;13.816;2023-02-28T10:57:18;9.40;;;3.90;;
17253;SDS011;32542;52.832;13.816;2023-02-28T11:00:25;9.25;;;3.72;;
17253;SDS011;32542;52.832;13.816;2023-02-28T11:03:37;8.93;;;3.70;;
17253;SDS011;32542;52.832;13.816;2023-02-28T11:06:41;8.25;;;3.42;;
17253;SDS011;32542;52.832;13.816;2023-02-28T11:09:44;7.35;;;3.97;;
17253;SDS011;32542;52.832;13.816;2023-02-28T11:12:50;8.98;;;3.88;;
17253;SDS011;32542;52.832;13.816;2023-02-28T11:16:00;8.30;;;3.45;;
17253;SDS011;32542;52.832;13.816;2023-02-28T11:19:06;9.35;;;3.67;;
17253;SDS011;32542;52.832;13.816;2023-02-28T11:22:23;8.32;;;3.40;;
17253;SDS011;32542;52.832;13.816;2023-02-28T11:25:30;6.93;;;3.67;;
17253;SDS011;32542;52.832;13.816;2023-02-28T11:28:36;7.70;;;3.40;;
17253;SDS011;32542;52.832;13.816;2023-02-28T11:31:40;9.45;;;3.42;;
17253;SDS011;32542;52.832;13.816;2023-02-28T11:34:44;6.38;;;3.13;;
17253;SDS011;32542;52.832;13.816;2023-02-28T11:37:50;9.57;;;3.58;;
17253;SDS011;32542;52.832;13.816;2023-02-28T11:40:58;7.10;;;3.50;;
17253;SDS011;32542;52.832;13.816;2023-02-28T11:44:18;6.00;;;3.25;;
17253;SDS011;32542;52.832;13.816;2023-02-28T11:47:32;9.57;;;3.20;;
17253;SDS011;32542;52.832;13.816;2023-02-28T11:50:46;8.07;;;3.50;;
17253;SDS011;32542;52.832;13.816;2023-02-28T11:54:11;5.75;;;3.13;;
17253;SDS011;32542;52.832;13.816;2023-02-28T11:57:31;6.30;;;3.08;;
17253;SDS011;32542;52.832;13.816;2023-02-28T12:00:40;5.15;;;2.97;;
17253;SDS011;32542;52.832;13.816;2023-02-28T12:04:03;8.30;;;3.60;;
17253;SDS011;32542;52.832;13.816;2023-02-28T12:07:20;8.02;;;3.17;;
17253;SDS011;32542;52.832;13.816;2023-02-28T12:10:33;5.28;;;2.95;;
17253;SDS011;32542;52.832;13.816;2023-02-28T12:13:48;5.82;;;3.00;;
17253;SDS011;32542;52.832;13.816;2023-02-28T12:17:06;8.50;;;3.40;;
17253;SDS011;32542;52.832;13.816;2023-02-28T12:20:23;5.10;;;3.08;;
17253;SDS011;32542;52.832;13.816;2023-02-28T12:23:45;5.18;;;3.13;;
17253;SDS011;32542;52.832;13.816;2023-02-28T12:27:02;5.80;;;3.10;;
17253;SDS011;32542;52.832;13.816;2023-02-28T12:30:13;6.75;;;2.85;;
17253;SDS011;32542;52.832;13.816;2023-02-28T12:33:21;7.35;;;3.00;;
17253;SDS011;32542;52.832;13.816;2023-02-28T12:36:30;4.78;;;2.85;;
17253;SDS011;32542;52.832;13.816;2023-02-28T12:39:36;6.45;;;3.00;;
17253;SDS011;32542;52.832;13.816;2023-02-28T12:42:53;5.00;;;2.75;;
17253;SDS011;32542;52.832;13.816;2023-02-28T12:46:00;6.07;;;3.03;;
17253;SDS011;32542;52.832;13.816;2023-02-28T12:49:11;4.47;;;2.63;;
17253;SDS011;32542;52.832;13.816;2023-02-28T12:52:19;5.43;;;2.95;;
17253;SDS011;32542;52.832;13.816;2023-02-28T12:55:27;6.53;;;2.83;;
17253;SDS011;32542;52.832;13.816;2023-02-28T12:58:39;7.57;;;3.15;;
17253;SDS011;32542;52.832;13.816;2023-02-28T13:01:51;7.03;;;2.70;;
17253;SDS011;32542;52.832;13.816;2023-02-28T13:05:06;6.40;;;2.67;;
17253;SDS011;32542;52.832;13.816;2023-02-28T13:08:24;3.92;;;2.50;;
17253;SDS011;32542;52.832;13.816;2023-02-28T13:11:43;6.80;;;2.97;;
17253;SDS011;32542;52.832;13.816;2023-02-28T13:14:49;3.65;;;2.63;;
17253;SDS011;32542;52.832;13.816;2023-02-28T13:17:53;2.95;;;2.47;;
17253;SDS011;32542;52.832;13.816;2023-02-28T13:20:59;4.63;;;2.50;;
17253;SDS011;32542;52.832;13.816;2023-02-28T13:24:03;4.95;;;2.72;;
17253;SDS011;32542;52.832;13.816;2023-02-28T13:34:13;3.78;;;2.50;;
17253;SDS011;32542;52.832;13.816;2023-02-28T13:37:35;6.05;;;2.75;;
17253;SDS011;32542;52.832;13.816;2023-02-28T13:40:44;4.68;;;2.70;;
17253;SDS011;32542;52.832;13.816;2023-02-28T13:43:59;4.75;;;2.63;;
17253;SDS011;32542;52.832;13.816;2023-02-28T13:47:23;6.22;;;2.90;;
17253;SDS011;32542;52.832;13.816;2023-02-28T13:50:31;3.03;;;2.35;;
17253;SDS011;32542;52.832;13.816;2023-02-28T13:53:51;5.45;;;2.50;;
17253;SDS011;32542;52.832;13.816;2023-02-28T13:57:10;4.43;;;2.40;;
17253;SDS011;32542;52.832;13.816;2023-02-28T14:00:27;4.35;;;2.53;;
17253;SDS011;32542;52.832;13.816;2023-02-28T14:03:44;4.57;;;2.45;;
17253;SDS011;32542;52.832;13.816;2023-02-28T14:07:01;3.92;;;2.47;;
17253;SDS011;32542;52.832;13.816;2023-02-28T14:10:05;3.45;;;2.53;;
17253;SDS011;32542;52.832;13.816;2023-02-28T14:13:12;3.72;;;2.30;;
17253;SDS011;32542;52.832;13.816;2023-02-28T14:16:39;4.65;;;2.47;;
17253;SDS011;32542;52.832;13.816;2023-02-28T14:19:47;3.45;;;2.65;;
17253;SDS011;32542;52.832;13.816;2023-02-28T14:22:53;3.28;;;2.58;;
17253;SDS011;32542;52.832;13.816;2023-02-28T14:26:06;4.78;;;2.67;;
17253;SDS011;32542;52.832;13.816;2023-02-28T14:29:26;3.70;;;2.67;;
17253;SDS011;32542;52.832;13.816;2023-02-28T14:32:45;4.57;;;2.47;;
17253;SDS011;32542;52.832;13.816;2023-02-28T14:36:01;3.53;;;2.50;;
17253;SDS011;32542;52.832;13.816;2023-02-28T14:39:11;4.55;;;2.30;;
17253;SDS011;32542;52.832;13.816;2023-02-28T14:42:27;3.75;;;2.47;;
17253;SDS011;32542;52.832;13.816;2023-02-28T14:45:32;4.10;;;2.35;;
17253;SDS011;32542;52.832;13.816;2023-02-28T14:48:38;3.83;;;2.50;;
17253;SDS011;32542;52.832;13.816;2023-02-28T14:51:43;3.13;;;2.10;;
17253;SDS011;32542;52.832;13.816;2023-02-28T14:54:51;3.33;;;2.38;;
17253;SDS011;32542;52.832;13.816;2023-02-28T14:57:56;3.45;;;2.25;;
17253;SDS011;32542;52.832;13.816;2023-02-28T15:01:01;4.05;;;2.40;;
17253;SDS011;32542;52.832;13.816;2023-02-28T15:04:05;3.45;;;2.28;;
17253;SDS011;32542;52.832;13.816;2023-02-28T15:07:10;4.15;;;2.42;;
17253;SDS011;32542;52.832;13.816;2023-02-28T15:10:17;3.63;;;2.28;;
17253;SDS011;32542;52.832;13.816;2023-02-28T15:13:22;3.45;;;2.33;;
17253;SDS011;32542;52.832;13.816;2023-02-28T15:16:29;4.18;;;2.20;;
17253;SDS011;32542;52.832;13.816;2023-02-28T15:19:37;5.25;;;2.53;;
17253;SDS011;32542;52.832;13.816;2023-02-28T15:22:46;6.63;;;2.72;;
17253;SDS011;32542;52.832;13.816;2023-02-28T15:25:52;7.93;;;2.80;;
17253;SDS011;32542;52.832;13.816;2023-02-28T15:28:58;7.78;;;2.67;;
17253;SDS011;32542;52.832;13.816;2023-02-28T15:32:03;4.03;;;2.33;;
17253;SDS011;32542;52.832;13.816;2023-02-28T15:35:18;6.65;;;2.60;;
17253;SDS011;32542;52.832;13.816;2023-02-28T15:38:25;6.38;;;2.33;;
17253;SDS011;32542;52.832;13.816;2023-02-28T15:41:29;6.45;;;2.67;;
17253;SDS011;32542;52.832;13.816;2023-02-28T15:44:34;7.43;;;2.55;;
17253;SDS011;32542;52.832;13.816;2023-02-28T15:47:38;5.35;;;2.70;;
17253;SDS011;32542;52.832;13.816;2023-02-28T15:50:41;4.57;;;2.42;;
17253;SDS011;32542;52.832;13.816;2023-02-28T15:53:47;4.55;;;2.30;;
17253;SDS011;32542;52.832;13.816;2023-02-28T15:56:52;6.97;;;2.40;;
17253;SDS011;32542;52.832;13.816;2023-02-28T15:59:58;8.10;;;2.55;;
17253;SDS011;32542;52.832;13.816;2023-02-28T16:03:25;4.72;;;2.33;;
17253;SDS011;32542;52.832;13.816;2023-02-28T16:06:34;5.30;;;3.22;;
17253;SDS011;32542;52.832;13.816;2023-02-28T16:09:40;6.35;;;2.40;;
17253;SDS011;32542;52.832;13.816;2023-02-28T16:12:43;3.67;;;2.38;;
17253;SDS011;32542;52.832;13.816;2023-02-28T16:15:47;5.47;;;2.33;;
17253;SDS011;32542;52.832;13.816;2023-02-28T16:18:52;4.18;;;2.08;;
17253;SDS011;32542;52.832;13.816;2023-02-28T16:21:56;6.53;;;2.35;;
17253;SDS011;32542;52.832;13.816;2023-02-28T16:25:01;4.63;;;2.42;;
17253;SDS011;32542;52.832;13.816;2023-02-28T16:28:06;4.63;;;2.30;;
17253;SDS011;32542;52.832;13.816;2023-02-28T16:31:14;8.45;;;2.25;;
17253;SDS011;32542;52.832;13.816;2023-02-28T16:34:18;2.97;;;2.08;;
17253;SDS011;32542;52.832;13.816;2023-02-28T16:37:20;8.25;;;2.40;;
17253;SDS011;32542;52.832;13.816;2023-02-28T16:40:25;3.08;;;2.13;;
17253;SDS011;32542;52.832;13.816;2023-02-28T16:43:30;3.03;;;2.20;;
17253;SDS011;32542;52.832;13.816;2023-02-28T16:46:34;3.60;;;2.47;;
17253;SDS011;32542;52.832;13.816;2023-02-28T16:49:37;5.95;;;2.28;;
17253;SDS011;32542;52.832;13.816;2023-02-28T16:52:41;4.80;;;2.40;;
17253;SDS011;32542;52.832;13.816;2023-02-28T16:55:45;3.90;;;2.10;;
17253;SDS011;32542;52.832;13.816;2023-02-28T16:58:48;3.97;;;2.35;;
17253;SDS011;32542;52.832;13.816;2023-02-28T17:01:52;2.67;;;2.00;;
17253;SDS011;32542;52.832;13.816;2023-02-28T17:04:57;3.65;;;2.42;;
17253;SDS011;32542;52.832;13.816;2023-02-28T17:08:00;4.38;;;2.28;;
17253;SDS011;32542;52.832;13.816;2023-02-28T17:11:04;6.05;;;2.50;;
17253;SDS011;32542;52.832;13.816;2023-02-28T17:14:07;6.00;;;2.63;;
17253;SDS011;32542;52.832;13.816;2023-02-28T17:17:13;3.53;;;2.25;;
17253;SDS011;32542;52.832;13.816;2023-02-28T17:20:21;3.58;;;2.42;;
17253;SDS011;32542;52.832;13.816;2023-02-28T17:23:24;4.60;;;2.63;;
17253;SDS011;32542;52.832;13.816;2023-02-28T17:26:29;5.13;;;2.72;;
17253;SDS011;32542;52.832;13.816;2023-02-28T17:29:33;9.18;;;2.80;;
17253;SDS011;32542;52.832;13.816;2023-02-28T17:32:36;6.65;;;3.13;;
17253;SDS011;32542;52.832;13.816;2023-02-28T17:35:38;4.60;;;2.65;;
17253;SDS011;32542;52.832;13.816;2023-02-28T17:38:41;10.27;;;2.78;;
17253;SDS011;32542;52.832;13.816;2023-02-28T17:41:46;8.40;;;2.80;;
17253;SDS011;32542;52.832;13.816;2023-02-28T17:44:49;5.50;;;2.80;;
17253;SDS011;32542;52.832;13.816;2023-02-28T17:47:51;7.45;;;3.38;;
17253;SDS011;32542;52.832;13.816;2023-02-28T17:50:54;4.47;;;2.70;;
17253;SDS011;32542;52.832;13.816;2023-02-28T17:53:57;5.15;;;2.88;;
17253;SDS011;32542;52.832;13.816;2023-02-28T17:57:02;5.28;;;2.80;;
17253;SDS011;32542;52.832;13.816;2023-02-28T18:00:05;6.13;;;2.58;;
17253;SDS011;32542;52.832;13.816;2023-02-28T18:03:12;9.00;;;2.58;;
17253;SDS011;32542;52.832;13.816;2023-02-28T18:06:16;6.50;;;2.67;;
17253;SDS011;32542;52.832;13.816;2023-02-28T18:09:21;4.05;;;2.58;;
17253;SDS011;32542;52.832;13.816;2023-02-28T18:12:26;4.53;;;2.70;;
17253;SDS011;32542;52.832;13.816;2023-02-28T18:15:30;10.57;;;3.00;;
17253;SDS011;32542;52.832;13.816;2023-02-28T18:18:33;6.10;;;2.70;;
17253;SDS011;32542;52.832;13.816;2023-02-28T18:21:38;3.83;;;2.42;;
17253;SDS011;32542;52.832;13.816;2023-02-28T18:24:41;5.82;;;2.40;;
17253;SDS011;32542;52.832;13.816;2023-02-28T18:27:45;3.10;;;2.65;;
17253;SDS011;32542;52.832;13.816;2023-02-28T18:30:59;3.95;;;2.40;;
17253;SDS011;32542;52.832;13.816;2023-02-28T18:34:07;4.25;;;2.35;;
17253;SDS011;32542;52.832;13.816;2023-02-28T18:37:10;5.00;;;2.90;;